WetterOnline ( https://www.wetteronline.de )

Wetter aktuell Sonneberg

Aktuelles Wetter: Coburg (323m)

6-stündlich | Neueste Meldungen
Ortszeit Temperatur Wetter
Fr, 14.06. 20:00 16.2° C Sprühregen
Fr, 14.06. 14:00 13.8° C bedeckt
Fr, 14.06. 8:00 11.8° C bewölkt
Fr, 14.06. 2:00 8.4° C bedeckt
Do, 13.06. 20:00 17.5° C wolkenlos
Do, 13.06. 14:00 15.1° C bedeckt
Do, 13.06. 8:00 10.3° C wolkig
Do, 13.06. 2:00 9.7° C bedeckt
Ortszeit Temperatur Wetter
Fr, 14.06. 20:00 16.2° C Sprühregen
Fr, 14.06. 19:50 16.2° C Sprühregen
Fr, 14.06. 19:40 16.2° C bedeckt
Fr, 14.06. 19:30 16.2° C bedeckt
Fr, 14.06. 19:20 16.2° C bedeckt
Fr, 14.06. 19:10 16.3° C bedeckt
Fr, 14.06. 19:00 16.4° C bedeckt
Fr, 14.06. 18:30 16.5° C bedeckt
Fr, 14.06. 18:00 17.0° C bedeckt
Fr, 14.06. 17:30 16.9° C bedeckt
Fr, 14.06. 17:00 16.1° C bedeckt
Ortszeit Relative Feuchte Sichtweite
Fr, 14.06. 20:00 72% 50 km
Fr, 14.06. 14:00 76% 55 km
Fr, 14.06. 8:00 69% 50 km
Fr, 14.06. 2:00 76% 65 km
Do, 13.06. 20:00 38% 60 km
Do, 13.06. 14:00 45% 35 km
Do, 13.06. 8:00 76% 45 km
Do, 13.06. 2:00 79% 55 km
Ortszeit Relative Feuchte Sichtweite
Fr, 14.06. 20:00 72% 50 km
Fr, 14.06. 19:50 72% -
Fr, 14.06. 19:40 72% -
Fr, 14.06. 19:30 71% 60 km
Fr, 14.06. 19:20 71% -
Fr, 14.06. 19:10 71% -
Fr, 14.06. 19:00 69% 60 km
Fr, 14.06. 18:30 67% 65 km
Fr, 14.06. 18:00 65% >70 km
Fr, 14.06. 17:30 67% 50 km
Fr, 14.06. 17:00 71% 55 km
Ortszeit Niederschlagsmenge Niederschlagsart
Fr, 14.06. 20:00 0.1 l/m2 in 12 Std. Sprühregen
Fr, 14.06. 14:00 0.1 l/m2 in 6 Std. Regen
Fr, 14.06. 8:00 0.0 l/m2 in 12 Std. -
Fr, 14.06. 2:00 0.0 l/m2 in 6 Std. -
Do, 13.06. 20:00 0.0 l/m2 in 12 Std. -
Do, 13.06. 14:00 0.0 l/m2 in 6 Std. -
Do, 13.06. 8:00 0.0 l/m2 in 12 Std. -
Do, 13.06. 2:00 0.0 l/m2 in 6 Std. -
Ortszeit Niederschlagsmenge Niederschlagsart
Fr, 14.06. 20:00 <0.05 l/m2 in 1 Std. Sprühregen
Fr, 14.06. 19:50 keine Meldung -
Fr, 14.06. 19:40 keine Meldung -
Fr, 14.06. 19:30 0.0 l/m2 in 30 Min -
Fr, 14.06. 19:20 keine Meldung -
Fr, 14.06. 19:10 keine Meldung -
Fr, 14.06. 19:00 0.0 l/m2 in 1 Std. -
Fr, 14.06. 18:30 0.0 l/m2 in 30 Min -
Fr, 14.06. 18:00 0.0 l/m2 in 1 Std. -
Fr, 14.06. 17:30 0.0 l/m2 in 30 Min -
Fr, 14.06. 17:00 0.0 l/m2 in 1 Std. -
Ortszeit Stärke Spitze Richtung
km/h Bft. km/h Grad Sektor
Fr, 14.06. 20:00 7 2 32 220° SW
Fr, 14.06. 14:00 33 5 44 210° SW
Fr, 14.06. 8:00 14 3 22 90° O
Fr, 14.06. 2:00 13 3 17 50° NO
Do, 13.06. 20:00 9 2 26 280° W
Do, 13.06. 14:00 18 3 32 280° W
Do, 13.06. 8:00 4 1 14 60° NO
Do, 13.06. 2:00 7 2 22 60° NO
Ortszeit Stärke Spitze Richtung
km/h Bft. km/h Grad Sektor
Fr, 14.06. 20:00 7 2 29 220° SW
Fr, 14.06. 19:50 7 2 - 220° SW
Fr, 14.06. 19:40 7 2 - 230° SW
Fr, 14.06. 19:30 9 2 28 230° SW
Fr, 14.06. 19:20 9 2 - 230° SW
Fr, 14.06. 19:10 15 3 - 220° SW
Fr, 14.06. 19:00 18 3 29 230° SW
Fr, 14.06. 18:30 18 3 29 220° SW
Fr, 14.06. 18:00 22 4 30 210° SW
Fr, 14.06. 17:30 14 3 29 230° SW
Fr, 14.06. 17:00 7 2 15 200° S
Ortszeit Untergrenze Bedeckung Gattung
total tief tief mittel hoch
Fr, 14.06. 20:00 810 m 8/8 8/8 - - -
Fr, 14.06. 14:00 480 m 8/8 8/8 - - -
Fr, 14.06. 8:00 2100 m 8/8 6/8 - - -
Fr, 14.06. 2:00 5700 m 8/8 8/8 - - -
Do, 13.06. 20:00 - 0/8 0/8 - - -
Do, 13.06. 14:00 2400 m 8/8 8/8 - - -
Do, 13.06. 8:00 2700 m 7/8 5/8 - - -
Do, 13.06. 2:00 3000 m 8/8 8/8 - - -
Ortszeit Bedeckungsgrad in Achtel und Wolkenuntergrenze
Fr, 14.06. 20:00 3(810m) 7(1260m) 8(1500m)
Fr, 14.06. 19:50 3(810m) 7(1260m) 8(1500m)
Fr, 14.06. 19:40 8
Fr, 14.06. 19:30 1(660m) 5(840m) 8(1440m)
Fr, 14.06. 19:20 1(660m) 5(840m) 8(1440m)
Fr, 14.06. 19:10 8
Fr, 14.06. 19:00 8(780m)
Fr, 14.06. 18:30 8(870m)
Fr, 14.06. 18:00 8(990m)
Fr, 14.06. 17:30 2(810m) 8(1020m)
Fr, 14.06. 17:00 8(900m)
Ortszeit Luftdruck NN (hPa) Tendenz (hPa in 3 Std.)
Fr, 14.06. 20:00 1011 - 0,7
Fr, 14.06. 14:00 1013 - 0,2
Fr, 14.06. 8:00 1014 - 0,5
Fr, 14.06. 2:00 1016 - 0,7
Do, 13.06. 20:00 1016 - 0,2
Do, 13.06. 14:00 1018 - 0,6
Do, 13.06. 8:00 1019 + 0,7
Do, 13.06. 2:00 1019 - 0,1
Ortszeit Luftdruck NN (hPa) Tendenz (hPa in 3 Std.)
Fr, 14.06. 20:00 1011 - 0,7
Fr, 14.06. 19:50 1011 keine Meldung
Fr, 14.06. 19:40 1011 keine Meldung
Fr, 14.06. 19:30 1011 - 0,6
Fr, 14.06. 19:20 1011 keine Meldung
Fr, 14.06. 19:10 1011 keine Meldung
Fr, 14.06. 19:00 1012 - 0,7
Fr, 14.06. 18:30 1012 - 0,9
Fr, 14.06. 18:00 1012 - 0,9
Fr, 14.06. 17:30 1012 - 1,0
Fr, 14.06. 17:00 1012 - 1,0
Ortszeit Schneehöhe (cm)
Fr, 14.06. 20:00 0
Fr, 14.06. 14:00 0
Fr, 14.06. 8:00 0
Fr, 14.06. 2:00 0
Do, 13.06. 20:00 0
Do, 13.06. 14:00 0
Do, 13.06. 8:00 0
Do, 13.06. 2:00 0
Ortszeit Schneehöhe (cm)
Fr, 14.06. 20:00 0
Fr, 14.06. 19:50 0
Fr, 14.06. 19:40 -
Fr, 14.06. 19:30 0
Fr, 14.06. 19:20 0
Fr, 14.06. 19:10 -
Fr, 14.06. 19:00 0
Fr, 14.06. 18:30 0
Fr, 14.06. 18:00 0
Fr, 14.06. 17:30 0
Fr, 14.06. 17:00 0
Link zu dieser Seite / Seite empfehlen

Das Wetter in ...